Time;durP1;ratioP1;P1;durP2;ratioP2;P2;SDS_P1;SDS_P2;PMS_P1;PMS_P2;Temp;Humidity;BMP_temperature;BMP_pressure;BME280_temperature;BME280_humidity;BME280_pressure;Samples;Min_cycle;Max_cycle;Signal;HPM_P1;HPM_P2
2022/01/01 00:01:30;;;;;;;10.18;5.32;;;;;;;;;;6143247;23;20041;-45
2022/01/01 00:03:55;;;;;;;15.70;8.48;;;;;;;;;;6142913;23;20017;-48
2022/01/01 00:06:21;;;;;;;15.95;11.88;;;;;;;;;;6143577;23;20509;-44
2022/01/01 00:08:46;;;;;;;18.98;13.85;;;;;;;;;;6117445;23;20010;-47
2022/01/01 00:11:12;;;;;;;17.58;10.73;;;;;;;;;;6143679;23;20116;-48
2022/01/01 00:13:38;;;;;;;16.85;12.48;;;;;;;;;;6173000;23;20338;-45
2022/01/01 00:16:08;;;;;;;14.15;7.90;;;;;;;;;;6172652;23;20013;-44
2022/01/01 00:18:34;;;;;;;14.32;7.35;;;;;;;;;;6173195;23;20064;-45
2022/01/01 00:20:59;;;;;;;11.45;7.38;;;;;;;;;;6172920;23;20061;-45
2022/01/01 00:23:24;;;;;;;16.00;6.88;;;;;;;;;;6173077;23;20039;-47
2022/01/01 00:25:49;;;;;;;12.32;7.00;;;;;;;;;;6173515;23;20090;-46
2022/01/01 00:28:15;;;;;;;11.75;6.28;;;;;;;;;;6173471;23;20604;-45
2022/01/01 00:30:40;;;;;;;12.82;7.13;;;;;;;;;;6173264;23;20036;-45
2022/01/01 00:33:06;;;;;;;14.13;7.75;;;;;;;;;;6173529;23;20024;-46
2022/01/01 00:35:32;;;;;;;12.65;7.03;;;;;;;;;;6172656;23;20013;-46
2022/01/01 00:37:57;;;;;;;12.40;7.07;;;;;;;;;;6173956;23;20103;-46
2022/01/01 00:40:22;;;;;;;14.73;7.82;;;;;;;;;;6172568;23;20021;-45
2022/01/01 00:42:47;;;;;;;16.50;6.60;;;;;;;;;;6173697;23;20029;-45
2022/01/01 00:45:13;;;;;;;10.43;7.22;;;;;;;;;;6172119;23;20009;-45
2022/01/01 00:47:38;;;;;;;14.93;6.32;;;;;;;;;;6173651;23;20009;-45
2022/01/01 00:50:03;;;;;;;14.73;7.53;;;;;;;;;;6173251;23;20377;-45
2022/01/01 00:52:29;;;;;;;14.02;6.93;;;;;;;;;;6173100;23;20615;-44
2022/01/01 00:54:54;;;;;;;21.13;8.82;;;;;;;;;;6173576;23;20110;-45
2022/01/01 00:57:19;;;;;;;13.40;7.43;;;;;;;;;;6172597;23;20346;-46
2022/01/01 00:59:45;;;;;;;13.18;8.45;;;;;;;;;;6173659;23;20032;-46
2022/01/01 01:02:10;;;;;;;12.38;7.30;;;;;;;;;;6141632;23;20025;-45
2022/01/01 01:04:35;;;;;;;16.70;8.18;;;;;;;;;;6143513;23;20021;-45
2022/01/01 01:07:01;;;;;;;16.63;8.82;;;;;;;;;;6143670;23;20013;-45
2022/01/01 01:09:27;;;;;;;15.95;8.77;;;;;;;;;;6143313;23;20017;-44
2022/01/01 01:11:55;;;;;;;15.40;7.88;;;;;;;;;;6143783;23;20014;-45
2022/01/01 01:14:26;;;;;;;10.65;7.07;;;;;;;;;;6142631;23;20020;-46
2022/01/01 01:16:52;;;;;;;20.67;8.30;;;;;;;;;;6146235;23;20009;-46
2022/01/01 01:19:18;;;;;;;15.48;7.70;;;;;;;;;;6146632;23;20018;-48
2022/01/01 01:21:44;;;;;;;15.70;8.00;;;;;;;;;;6146524;23;20032;-45
2022/01/01 01:24:10;;;;;;;14.75;7.60;;;;;;;;;;6146670;23;20049;-48
2022/01/01 01:26:35;;;;;;;17.77;7.13;;;;;;;;;;6146114;23;20006;-46
2022/01/01 01:29:03;;;;;;;13.57;7.28;;;;;;;;;;6144937;23;20013;-45
2022/01/01 01:31:29;;;;;;;16.23;7.32;;;;;;;;;;6145961;23;20025;-46
2022/01/01 01:33:54;;;;;;;13.50;6.68;;;;;;;;;;6146620;23;20006;-46
2022/01/01 01:36:20;;;;;;;15.43;6.88;;;;;;;;;;6146118;23;20020;-47
2022/01/01 01:38:45;;;;;;;19.10;8.05;;;;;;;;;;6146165;23;20097;-47
2022/01/01 01:41:10;;;;;;;11.90;7.07;;;;;;;;;;6146433;23;20048;-46
2022/01/01 01:43:36;;;;;;;12.68;7.05;;;;;;;;;;6145161;23;20044;-46
2022/01/01 01:46:04;;;;;;;21.85;7.70;;;;;;;;;;6146871;23;20014;-45
2022/01/01 01:48:33;;;;;;;14.48;7.22;;;;;;;;;;6145876;23;20021;-45
2022/01/01 01:50:59;;;;;;;13.68;8.13;;;;;;;;;;6146958;23;20014;-45
2022/01/01 01:53:25;;;;;;;17.98;8.50;;;;;;;;;;6145114;23;20022;-46
2022/01/01 01:55:50;;;;;;;18.55;7.68;;;;;;;;;;6146818;23;20081;-49
2022/01/01 01:58:16;;;;;;;14.85;7.65;;;;;;;;;;6145320;23;20021;-47
2022/01/01 02:01:20;;;;;;;17.88;8.27;;;;;;;;;;6157821;23;20013;-48
2022/01/01 02:03:42;;;;;;;16.02;8.07;;;;;;;;;;6174459;23;20017;-50
2022/01/01 02:06:07;;;;;;;10.77;6.60;;;;;;;;;;6176217;23;20341;-47
2022/01/01 02:08:33;;;;;;;18.25;8.05;;;;;;;;;;6175072;23;20091;-49
2022/01/01 02:10:58;;;;;;;14.38;7.88;;;;;;;;;;6177197;23;20005;-46
2022/01/01 02:13:32;;;;;;;14.13;7.85;;;;;;;;;;6176709;23;20024;-47
2022/01/01 02:16:25;;;;;;;16.27;7.03;;;;;;;;;;6177123;23;20096;-45
2022/01/01 02:18:50;;;;;;;17.90;8.75;;;;;;;;;;6177523;23;20005;-48
2022/01/01 02:21:16;;;;;;;21.27;8.23;;;;;;;;;;6176668;23;20021;-46
2022/01/01 02:23:44;;;;;;;18.35;7.50;;;;;;;;;;6177841;23;20061;-46
2022/01/01 02:26:12;;;;;;;12.52;6.85;;;;;;;;;;6176916;23;20525;-44
2022/01/01 02:28:40;;;;;;;13.52;7.70;;;;;;;;;;6146480;23;20013;-44
2022/01/01 02:31:06;;;;;;;16.25;7.53;;;;;;;;;;6147367;23;20096;-45
2022/01/01 02:33:32;;;;;;;16.83;7.82;;;;;;;;;;6146810;23;20091;-46
2022/01/01 02:35:57;;;;;;;15.40;8.90;;;;;;;;;;6147613;23;20730;-45
2022/01/01 02:38:22;;;;;;;13.27;7.43;;;;;;;;;;6147485;23;20041;-46
2022/01/01 02:40:47;;;;;;;15.43;7.07;;;;;;;;;;6147523;23;20013;-47
2022/01/01 02:43:14;;;;;;;14.90;8.02;;;;;;;;;;6146664;23;20025;-47
2022/01/01 02:45:39;;;;;;;17.88;7.60;;;;;;;;;;6147011;23;20013;-48
2022/01/01 02:48:04;;;;;;;13.45;7.22;;;;;;;;;;6147893;23;20017;-48
2022/01/01 02:50:30;;;;;;;15.52;7.80;;;;;;;;;;6146490;23;20010;-47
2022/01/01 02:52:55;;;;;;;18.73;7.95;;;;;;;;;;6145623;23;20013;-45
2022/01/01 02:55:20;;;;;;;13.48;8.32;;;;;;;;;;6147180;23;20316;-45
2022/01/01 02:57:46;;;;;;;16.83;7.93;;;;;;;;;;6145549;23;20010;-47
2022/01/01 03:00:11;;;;;;;16.25;7.10;;;;;;;;;;6146380;23;20021;-47
2022/01/01 03:02:36;;;;;;;13.02;7.63;;;;;;;;;;6146539;23;20020;-47
2022/01/01 03:05:02;;;;;;;14.48;8.05;;;;;;;;;;6147655;23;20540;-45
2022/01/01 03:07:27;;;;;;;12.90;7.18;;;;;;;;;;6146234;23;20009;-48
2022/01/01 03:09:52;;;;;;;21.13;7.22;;;;;;;;;;6147551;23;20013;-45
2022/01/01 03:12:18;;;;;;;12.90;7.20;;;;;;;;;;6147347;23;20029;-45
2022/01/01 03:14:44;;;;;;;14.23;7.70;;;;;;;;;;6146502;23;20055;-49
2022/01/01 03:17:09;;;;;;;15.32;7.07;;;;;;;;;;6147209;23;20061;-45
2022/01/01 03:19:35;;;;;;;15.57;6.90;;;;;;;;;;6146209;23;20010;-48
2022/01/01 03:22:00;;;;;;;18.90;7.57;;;;;;;;;;6147823;23;20057;-47
2022/01/01 03:24:26;;;;;;;16.20;7.78;;;;;;;;;;6146620;23;20025;-47
2022/01/01 03:26:51;;;;;;;19.83;7.70;;;;;;;;;;6147389;23;20013;-44
2022/01/01 03:29:16;;;;;;;17.40;6.47;;;;;;;;;;6146850;23;20018;-46
2022/01/01 03:31:42;;;;;;;14.80;6.80;;;;;;;;;;6144672;23;20014;-45
2022/01/01 03:34:07;;;;;;;16.25;7.63;;;;;;;;;;6147674;23;20020;-45
2022/01/01 03:36:32;;;;;;;14.02;6.25;;;;;;;;;;6146314;23;20009;-45
2022/01/01 03:38:59;;;;;;;11.82;6.10;;;;;;;;;;6147708;23;20026;-49
2022/01/01 03:41:26;;;;;;;18.88;6.32;;;;;;;;;;6146836;23;20394;-46
2022/01/01 03:43:51;;;;;;;16.58;6.57;;;;;;;;;;6145451;23;20069;-45
2022/01/01 03:46:16;;;;;;;14.23;6.70;;;;;;;;;;6146957;23;20018;-45
2022/01/01 03:48:41;;;;;;;16.75;6.82;;;;;;;;;;6147172;23;20005;-45
2022/01/01 03:51:07;;;;;;;12.70;5.90;;;;;;;;;;6146981;23;20014;-46
2022/01/01 03:53:32;;;;;;;15.10;6.15;;;;;;;;;;6146750;23;20132;-46
2022/01/01 03:55:58;;;;;;;11.48;6.50;;;;;;;;;;6146311;23;20016;-44
2022/01/01 03:58:24;;;;;;;14.45;6.47;;;;;;;;;;6146726;23;20441;-45
2022/01/01 04:00:49;;;;;;;11.02;6.22;;;;;;;;;;6146496;23;20461;-45
2022/01/01 04:03:17;;;;;;;7.97;5.47;;;;;;;;;;6146593;23;20017;-44
2022/01/01 04:05:44;;;;;;;13.50;5.68;;;;;;;;;;6146411;23;20060;-44
2022/01/01 04:08:10;;;;;;;13.52;5.93;;;;;;;;;;6120542;23;20089;-47
2022/01/01 04:10:35;;;;;;;8.65;5.03;;;;;;;;;;6146748;23;20025;-47
2022/01/01 04:13:01;;;;;;;9.70;5.38;;;;;;;;;;6146619;23;20438;-49
2022/01/01 04:15:27;;;;;;;13.32;5.25;;;;;;;;;;6145553;23;20017;-49
2022/01/01 04:17:57;;;;;;;11.52;6.63;;;;;;;;;;6146897;23;20036;-49
2022/01/01 04:20:23;;;;;;;12.07;5.55;;;;;;;;;;6146743;23;20084;-47
2022/01/01 04:22:48;;;;;;;11.07;6.28;;;;;;;;;;6146617;23;20025;-50
2022/01/01 04:25:13;;;;;;;14.02;6.82;;;;;;;;;;6146244;23;20017;-47
2022/01/01 04:27:39;;;;;;;15.75;6.43;;;;;;;;;;6146680;23;20017;-46
2022/01/01 04:30:04;;;;;;;13.55;5.55;;;;;;;;;;6147066;23;20406;-50
2022/01/01 04:32:29;;;;;;;16.05;6.28;;;;;;;;;;6146211;23;20028;-48
2022/01/01 04:34:55;;;;;;;19.35;5.75;;;;;;;;;;6146647;23;20435;-46
2022/01/01 04:37:21;;;;;;;11.85;5.72;;;;;;;;;;6119904;23;20375;-47
2022/01/01 04:39:47;;;;;;;16.45;6.88;;;;;;;;;;6146955;23;20434;-48
2022/01/01 04:42:12;;;;;;;10.55;6.10;;;;;;;;;;6145876;23;20033;-47
2022/01/01 04:44:38;;;;;;;16.02;5.60;;;;;;;;;;6146770;23;20022;-48
2022/01/01 04:47:03;;;;;;;8.82;5.47;;;;;;;;;;6120716;23;20021;-46
2022/01/01 04:49:28;;;;;;;19.08;5.40;;;;;;;;;;6145835;23;20014;-49
2022/01/01 04:51:54;;;;;;;10.73;4.82;;;;;;;;;;6144794;23;20017;-46
2022/01/01 04:54:19;;;;;;;18.55;6.05;;;;;;;;;;6146145;23;20010;-45
2022/01/01 04:56:46;;;;;;;9.82;5.40;;;;;;;;;;6146180;23;20013;-47
2022/01/01 04:59:12;;;;;;;11.75;5.40;;;;;;;;;;6147030;23;20343;-43
2022/01/01 05:01:37;;;;;;;11.27;4.80;;;;;;;;;;6146479;23;20009;-50
2022/01/01 05:04:03;;;;;;;6.10;5.38;;;;;;;;;;6146063;23;20032;-46
2022/01/01 05:06:28;;;;;;;14.77;5.10;;;;;;;;;;6146175;23;20746;-48
2022/01/01 05:08:53;;;;;;;14.02;5.45;;;;;;;;;;6145826;23;20454;-47
2022/01/01 05:11:18;;;;;;;10.27;5.43;;;;;;;;;;6145955;23;20010;-45
2022/01/01 05:13:44;;;;;;;11.82;6.53;;;;;;;;;;6145629;23;20009;-45
2022/01/01 05:16:14;;;;;;;14.60;5.05;;;;;;;;;;6147083;23;20022;-45
2022/01/01 05:18:39;;;;;;;12.20;5.78;;;;;;;;;;6175789;23;20005;-48
2022/01/01 05:21:05;;;;;;;10.15;5.30;;;;;;;;;;6176368;23;20088;-45
2022/01/01 05:23:30;;;;;;;12.60;5.43;;;;;;;;;;6175010;23;20041;-48
2022/01/01 05:25:55;;;;;;;10.05;5.60;;;;;;;;;;6175677;23;20012;-46
2022/01/01 05:28:20;;;;;;;11.57;5.40;;;;;;;;;;6175300;23;20044;-46
2022/01/01 05:30:46;;;;;;;8.50;5.30;;;;;;;;;;6176175;23;20013;-46
2022/01/01 05:33:11;;;;;;;11.60;5.68;;;;;;;;;;6149667;23;20024;-46
2022/01/01 05:35:36;;;;;;;9.95;5.38;;;;;;;;;;6175326;23;20009;-45
2022/01/01 05:38:01;;;;;;;9.38;4.70;;;;;;;;;;6175787;23;20071;-45
2022/01/01 05:40:27;;;;;;;9.93;4.45;;;;;;;;;;6175539;23;20029;-46
2022/01/01 05:42:52;;;;;;;10.55;4.65;;;;;;;;;;6176111;23;20350;-45
2022/01/01 05:45:17;;;;;;;9.85;4.93;;;;;;;;;;6175379;23;20009;-47
2022/01/01 05:47:42;;;;;;;12.15;5.20;;;;;;;;;;6178413;23;20025;-47
2022/01/01 05:50:08;;;;;;;12.25;5.13;;;;;;;;;;6177528;23;20356;-44
2022/01/01 05:52:33;;;;;;;10.85;4.78;;;;;;;;;;6177217;23;20016;-44
2022/01/01 05:54:58;;;;;;;12.40;5.53;;;;;;;;;;6177647;23;20520;-45
2022/01/01 05:57:24;;;;;;;13.98;5.93;;;;;;;;;;6177626;23;20017;-45
2022/01/01 05:59:49;;;;;;;10.07;5.38;;;;;;;;;;6177488;23;20001;-46
2022/01/01 06:02:14;;;;;;;8.73;4.85;;;;;;;;;;6178158;23;20353;-46
2022/01/01 06:04:40;;;;;;;13.93;5.88;;;;;;;;;;6176874;23;20441;-48
2022/01/01 06:07:07;;;;;;;12.73;5.30;;;;;;;;;;6178006;23;20472;-46
2022/01/01 06:09:32;;;;;;;10.10;5.18;;;;;;;;;;6177383;23;20009;-45
2022/01/01 06:11:57;;;;;;;10.88;4.80;;;;;;;;;;6177434;23;20028;-46
2022/01/01 06:14:22;;;;;;;10.75;5.75;;;;;;;;;;6176970;23;20009;-48
2022/01/01 06:16:48;;;;;;;11.73;5.30;;;;;;;;;;6177716;23;20108;-45
2022/01/01 06:19:13;;;;;;;10.32;4.50;;;;;;;;;;6176997;23;20017;-46
2022/01/01 06:21:39;;;;;;;12.13;5.22;;;;;;;;;;6177827;23;20012;-47
2022/01/01 06:24:04;;;;;;;16.10;5.50;;;;;;;;;;6177218;23;20071;-46
2022/01/01 06:26:30;;;;;;;19.00;5.65;;;;;;;;;;6176901;23;20464;-46
2022/01/01 06:28:55;;;;;;;9.05;4.88;;;;;;;;;;6176506;23;20036;-45
2022/01/01 06:31:20;;;;;;;12.27;5.25;;;;;;;;;;6150694;23;20093;-45
2022/01/01 06:33:45;;;;;;;12.68;5.18;;;;;;;;;;6177192;23;20005;-45
2022/01/01 06:36:12;;;;;;;7.97;4.20;;;;;;;;;;6177799;23;20067;-47
2022/01/01 06:38:39;;;;;;;13.05;5.43;;;;;;;;;;6176699;23;20016;-46
2022/01/01 06:41:04;;;;;;;14.60;4.78;;;;;;;;;;6177691;23;20024;-45
2022/01/01 06:43:29;;;;;;;11.20;4.15;;;;;;;;;;6177120;23;20440;-45
2022/01/01 06:45:55;;;;;;;7.68;4.60;;;;;;;;;;6177203;23;20024;-46
2022/01/01 06:48:20;;;;;;;10.13;4.57;;;;;;;;;;6176796;23;20331;-45
2022/01/01 06:50:45;;;;;;;6.13;3.33;;;;;;;;;;6177487;23;20009;-47
2022/01/01 06:53:11;;;;;;;6.95;3.65;;;;;;;;;;6177888;23;20013;-46
2022/01/01 06:55:36;;;;;;;10.40;5.13;;;;;;;;;;6176031;23;20017;-46
2022/01/01 06:58:01;;;;;;;11.23;4.70;;;;;;;;;;6177890;23;20377;-46
2022/01/01 07:00:27;;;;;;;9.38;4.25;;;;;;;;;;6175659;23;20079;-49
2022/01/01 07:02:52;;;;;;;10.48;4.57;;;;;;;;;;6176503;23;20052;-49
2022/01/01 07:05:17;;;;;;;16.80;4.13;;;;;;;;;;6176923;23;20009;-48
2022/01/01 07:07:43;;;;;;;11.20;3.90;;;;;;;;;;6176487;23;20062;-46
2022/01/01 07:10:12;;;;;;;10.98;5.05;;;;;;;;;;6177637;23;20020;-48
2022/01/01 07:12:37;;;;;;;9.85;4.30;;;;;;;;;;6176485;23;20001;-46
2022/01/01 07:15:06;;;;;;;6.88;3.70;;;;;;;;;;6177789;23;20012;-47
2022/01/01 07:17:31;;;;;;;6.77;3.80;;;;;;;;;;6176125;23;20037;-46
2022/01/01 07:19:57;;;;;;;11.57;4.10;;;;;;;;;;6177552;23;20021;-46
2022/01/01 07:22:22;;;;;;;7.93;3.60;;;;;;;;;;6175828;23;20013;-47
2022/01/01 07:24:49;;;;;;;6.95;3.58;;;;;;;;;;6176994;23;20024;-46
2022/01/01 07:27:14;;;;;;;6.05;3.55;;;;;;;;;;6176209;23;20013;-44
2022/01/01 07:29:40;;;;;;;9.50;3.95;;;;;;;;;;6177075;23;20020;-45
2022/01/01 07:32:05;;;;;;;8.95;4.13;;;;;;;;;;6176972;23;20017;-50
2022/01/01 07:34:31;;;;;;;8.70;3.85;;;;;;;;;;6150238;23;20016;-44
2022/01/01 07:36:56;;;;;;;9.60;3.72;;;;;;;;;;6176279;23;20009;-46
2022/01/01 07:39:22;;;;;;;10.00;4.60;;;;;;;;;;6176645;23;20021;-44
2022/01/01 07:41:47;;;;;;;6.60;4.05;;;;;;;;;;6177250;23;20010;-45
2022/01/01 07:44:13;;;;;;;13.15;4.50;;;;;;;;;;6176072;23;20405;-46
2022/01/01 07:46:38;;;;;;;10.60;4.38;;;;;;;;;;6176879;23;20009;-47
2022/01/01 07:49:03;;;;;;;13.00;5.32;;;;;;;;;;6176443;23;20083;-47
2022/01/01 07:51:29;;;;;;;7.68;3.78;;;;;;;;;;6176217;23;20446;-46
2022/01/01 07:53:54;;;;;;;8.40;4.90;;;;;;;;;;6176717;23;20442;-50
2022/01/01 07:56:19;;;;;;;6.85;4.00;;;;;;;;;;6176497;23;20461;-45
2022/01/01 07:58:44;;;;;;;10.02;4.40;;;;;;;;;;6176505;23;20021;-45
2022/01/01 08:01:10;;;;;;;8.63;3.72;;;;;;;;;;6176699;23;20024;-46
2022/01/01 08:03:35;;;;;;;9.25;3.95;;;;;;;;;;6176050;23;20342;-46
2022/01/01 08:06:00;;;;;;;11.25;3.63;;;;;;;;;;6176225;23;20016;-46
2022/01/01 08:08:26;;;;;;;13.10;3.70;;;;;;;;;;6175835;23;20139;-47
2022/01/01 08:10:51;;;;;;;12.57;3.70;;;;;;;;;;6176205;23;20077;-45
2022/01/01 08:13:23;;;;;;;9.50;3.67;;;;;;;;;;6176543;23;20017;-45
2022/01/01 08:15:49;;;;;;;5.07;3.15;;;;;;;;;;6175567;23;20005;-45
2022/01/01 08:18:14;;;;;;;9.05;3.38;;;;;;;;;;6149875;23;20009;-46
2022/01/01 08:20:40;;;;;;;12.02;4.22;;;;;;;;;;6176059;23;20064;-45
2022/01/01 08:23:05;;;;;;;7.05;3.50;;;;;;;;;;6176213;23;20017;-45
2022/01/01 08:25:31;;;;;;;11.48;4.13;;;;;;;;;;6175367;23;20017;-45
2022/01/01 08:27:56;;;;;;;7.75;3.80;;;;;;;;;;6176681;23;20080;-45
2022/01/01 08:30:21;;;;;;;4.90;2.97;;;;;;;;;;6175530;23;20016;-45
2022/01/01 08:32:46;;;;;;;8.75;3.20;;;;;;;;;;6177023;23;20338;-45
2022/01/01 08:35:12;;;;;;;12.65;4.00;;;;;;;;;;6175623;23;20032;-46
2022/01/01 08:37:37;;;;;;;5.93;3.20;;;;;;;;;;6175570;23;20663;-45
2022/01/01 08:40:03;;;;;;;9.00;3.13;;;;;;;;;;6176559;23;20669;-47
2022/01/01 08:42:28;;;;;;;7.32;3.70;;;;;;;;;;6175157;23;20033;-45
2022/01/01 08:44:53;;;;;;;7.60;3.17;;;;;;;;;;6177025;23;20017;-48
2022/01/01 08:47:19;;;;;;;9.95;3.78;;;;;;;;;;6175420;23;20005;-45
2022/01/01 08:49:44;;;;;;;9.70;3.22;;;;;;;;;;6176386;23;20027;-46
2022/01/01 08:52:10;;;;;;;6.75;3.28;;;;;;;;;;6175764;23;20083;-45
2022/01/01 08:54:35;;;;;;;9.73;3.38;;;;;;;;;;6176386;23;20088;-49
2022/01/01 08:57:01;;;;;;;5.85;2.83;;;;;;;;;;6175767;23;20889;-45
2022/01/01 08:59:26;;;;;;;8.73;3.38;;;;;;;;;;6176037;23;20393;-46
2022/01/01 09:01:51;;;;;;;7.57;3.60;;;;;;;;;;6176085;23;20020;-45
2022/01/01 09:04:17;;;;;;;6.03;2.95;;;;;;;;;;6175292;23;20457;-45
2022/01/01 09:06:42;;;;;;;4.40;2.80;;;;;;;;;;6176409;23;20696;-46
2022/01/01 09:09:07;;;;;;;4.30;2.72;;;;;;;;;;6175945;23;20020;-45
2022/01/01 09:11:32;;;;;;;9.98;2.90;;;;;;;;;;6175755;23;20013;-45
2022/01/01 09:13:58;;;;;;;9.07;3.42;;;;;;;;;;6175775;23;20443;-45
2022/01/01 09:16:29;;;;;;;6.22;3.13;;;;;;;;;;6175561;23;20013;-46
2022/01/01 09:18:54;;;;;;;7.68;3.25;;;;;;;;;;6175742;23;20008;-45
2022/01/01 09:21:21;;;;;;;4.68;3.08;;;;;;;;;;6177872;23;20005;-48
2022/01/01 09:23:46;;;;;;;5.60;2.88;;;;;;;;;;6177609;23;20390;-46
2022/01/01 09:26:11;;;;;;;13.80;3.92;;;;;;;;;;6177993;23;20028;-43
2022/01/01 09:28:37;;;;;;;9.68;3.65;;;;;;;;;;6177007;23;20358;-45
2022/01/01 09:31:02;;;;;;;7.78;3.40;;;;;;;;;;6152177;23;20080;-45
2022/01/01 09:33:29;;;;;;;7.18;3.88;;;;;;;;;;6177116;23;20013;-46
2022/01/01 09:35:58;;;;;;;4.35;3.00;;;;;;;;;;6177785;23;20017;-46
2022/01/01 09:38:24;;;;;;;6.35;2.65;;;;;;;;;;6176960;23;20020;-44
2022/01/01 09:40:51;;;;;;;6.95;3.70;;;;;;;;;;6178190;23;19997;-46
2022/01/01 09:43:18;;;;;;;7.82;3.05;;;;;;;;;;6177673;23;20021;-46
2022/01/01 09:45:44;;;;;;;7.88;3.13;;;;;;;;;;6177546;23;20016;-47
2022/01/01 09:48:09;;;;;;;10.95;3.38;;;;;;;;;;6178206;23;20009;-46
2022/01/01 09:50:35;;;;;;;5.45;3.13;;;;;;;;;;6176765;23;20040;-45
2022/01/01 09:53:01;;;;;;;7.88;3.10;;;;;;;;;;6178851;23;20009;-46
2022/01/01 09:55:26;;;;;;;11.10;3.70;;;;;;;;;;6177039;23;20063;-46
2022/01/01 09:57:51;;;;;;;11.52;3.72;;;;;;;;;;6177742;23;20016;-45
2022/01/01 10:00:17;;;;;;;4.78;3.17;;;;;;;;;;6177174;23;20111;-45
2022/01/01 10:02:42;;;;;;;10.35;3.83;;;;;;;;;;6177495;23;20012;-45
2022/01/01 10:05:08;;;;;;;12.40;3.70;;;;;;;;;;6178116;23;20049;-47
2022/01/01 10:07:33;;;;;;;5.80;2.80;;;;;;;;;;6149724;23;20346;-45
2022/01/01 10:10:15;;;;;;;8.65;3.53;;;;;;;;;;6178266;23;20017;-46
2022/01/01 10:12:41;;;;;;;6.43;2.72;;;;;;;;;;6175941;23;20012;-46
2022/01/01 10:15:07;;;;;;;14.52;4.30;;;;;;;;;;6177875;23;20474;-46
2022/01/01 10:17:32;;;;;;;7.85;3.20;;;;;;;;;;6177160;23;20497;-45
2022/01/01 10:19:57;;;;;;;7.38;2.97;;;;;;;;;;6177796;23;20016;-45
2022/01/01 10:22:24;;;;;;;13.18;3.67;;;;;;;;;;6176772;23;20059;-45
2022/01/01 10:27:51;;;;;;;16.38;3.28;;;;;;;;;;6176932;23;20059;-45
2022/01/01 10:30:17;;;;;;;12.50;4.03;;;;;;;;;;6177046;23;20017;-48
2022/01/01 10:32:58;;;;;;;15.52;4.32;;;;;;;;;;6177036;23;20016;-45
2022/01/01 10:35:23;;;;;;;11.13;4.03;;;;;;;;;;6177176;23;20084;-44
2022/01/01 10:37:49;;;;;;;9.05;4.53;;;;;;;;;;6177018;23;20504;-46
2022/01/01 10:40:23;;;;;;;13.73;4.45;;;;;;;;;;6174837;23;20009;-46
2022/01/01 10:42:51;;;;;;;10.38;4.03;;;;;;;;;;6177222;23;20016;-50
2022/01/01 10:45:27;;;;;;;10.23;4.22;;;;;;;;;;6176867;23;20384;-46
2022/01/01 10:48:14;;;;;;;13.63;3.78;;;;;;;;;;6177241;23;20020;-45
2022/01/01 10:50:40;;;;;;;10.18;4.25;;;;;;;;;;6176030;23;20083;-47
2022/01/01 10:53:10;;;;;;;9.57;4.80;;;;;;;;;;6177667;23;20065;-46
2022/01/01 10:55:39;;;;;;;15.88;4.63;;;;;;;;;;6176617;23;20011;-48
2022/01/01 10:58:04;;;;;;;14.20;4.53;;;;;;;;;;6177603;23;20024;-44
2022/01/01 11:00:29;;;;;;;14.88;4.97;;;;;;;;;;6176372;23;20247;-47
2022/01/01 11:02:58;;;;;;;12.95;4.80;;;;;;;;;;6177216;23;20013;-49
2022/01/01 11:05:27;;;;;;;14.30;4.60;;;;;;;;;;6176853;23;20045;-45
2022/01/01 11:07:53;;;;;;;14.48;5.50;;;;;;;;;;6176448;23;20010;-45
2022/01/01 11:10:19;;;;;;;11.93;5.45;;;;;;;;;;6177049;23;20870;-51
2022/01/01 11:12:45;;;;;;;15.23;5.75;;;;;;;;;;6176994;23;20064;-48
2022/01/01 11:15:11;;;;;;;16.80;6.18;;;;;;;;;;6177490;23;20088;-45
2022/01/01 11:17:37;;;;;;;11.82;4.25;;;;;;;;;;6176743;23;20032;-46
2022/01/01 11:20:03;;;;;;;20.60;5.20;;;;;;;;;;6177604;23;20100;-47
2022/01/01 11:22:29;;;;;;;14.55;4.13;;;;;;;;;;6176119;23;20572;-48
2022/01/01 11:24:54;;;;;;;16.88;4.75;;;;;;;;;;6176963;23;20067;-48
2022/01/01 11:27:20;;;;;;;14.98;5.15;;;;;;;;;;6176532;23;20020;-45
2022/01/01 11:29:52;;;;;;;13.35;4.75;;;;;;;;;;6176966;23;20129;-45
2022/01/01 11:32:22;;;;;;;10.45;4.97;;;;;;;;;;6176473;23;20089;-49
2022/01/01 11:34:49;;;;;;;17.92;5.38;;;;;;;;;;6175404;23;20009;-45
2022/01/01 11:37:17;;;;;;;11.02;5.32;;;;;;;;;;6176824;23;20013;-45
2022/01/01 11:39:43;;;;;;;15.25;5.63;;;;;;;;;;6176904;23;20453;-47
2022/01/01 11:42:10;;;;;;;19.38;5.30;;;;;;;;;;6149913;23;20071;-46
2022/01/01 11:44:36;;;;;;;15.88;5.38;;;;;;;;;;6176023;23;20092;-47
2022/01/01 11:47:05;;;;;;;16.67;5.22;;;;;;;;;;6176798;23;20024;-44
2022/01/01 11:49:31;;;;;;;;;;;;;;;;;;6177120;23;20547;-44
2022/01/01 11:51:56;;;;;;;14.98;5.28;;;;;;;;;;6176230;23;19908;-45
2022/01/01 11:54:24;;;;;;;11.85;5.50;;;;;;;;;;6177169;23;20013;-45
2022/01/01 11:56:50;;;;;;;17.88;5.45;;;;;;;;;;6176357;23;20013;-46
2022/01/01 11:59:19;;;;;;;19.77;5.95;;;;;;;;;;6176504;23;20021;-44
2022/01/01 12:01:45;;;;;;;19.30;5.18;;;;;;;;;;6176001;23;20017;-45
2022/01/01 12:04:43;;;;;;;16.40;5.57;;;;;;;;;;6176555;23;20766;-46
2022/01/01 12:07:20;;;;;;;10.73;4.63;;;;;;;;;;6070372;23;20024;-46
2022/01/01 12:09:57;;;;;;;21.23;5.60;;;;;;;;;;6176219;23;20056;-47
2022/01/01 12:12:35;;;;;;;21.13;6.22;;;;;;;;;;6175351;23;20348;-46
2022/01/01 12:15:00;;;;;;;13.82;5.72;;;;;;;;;;6176773;23;20071;-45
2022/01/01 12:17:25;;;;;;;17.95;7.00;;;;;;;;;;6175018;23;20449;-48
2022/01/01 12:19:54;;;;;;;12.32;5.75;;;;;;;;;;6176455;23;20027;-47
2022/01/01 12:22:23;;;;;;;19.13;6.22;;;;;;;;;;6175766;23;20091;-46
2022/01/01 12:24:48;;;;;;;;;;;;;;;;;;6176736;23;20017;-45
2022/01/01 12:27:14;;;;;;;21.42;6.82;;;;;;;;;;6175624;23;20266;-44
2022/01/01 12:29:40;;;;;;;21.55;6.95;;;;;;;;;;6172109;23;20057;-45
2022/01/01 12:32:08;;;;;;;21.52;7.03;;;;;;;;;;6172917;23;20021;-46
2022/01/01 12:34:34;;;;;;;19.33;6.25;;;;;;;;;;6172187;23;20028;-45
2022/01/01 12:37:03;;;;;;;16.08;5.90;;;;;;;;;;6145879;23;20005;-46
2022/01/01 12:39:28;;;;;;;18.20;6.70;;;;;;;;;;6172414;23;20622;-45
2022/01/01 12:41:56;;;;;;;20.95;6.72;;;;;;;;;;6172785;23;20009;-46
2022/01/01 12:44:22;;;;;;;17.73;7.10;;;;;;;;;;6173616;23;20036;-45
2022/01/01 12:46:48;;;;;;;23.80;6.63;;;;;;;;;;6173502;23;20009;-46
2022/01/01 12:49:14;;;;;;;21.75;6.82;;;;;;;;;;6173924;23;20067;-49
2022/01/01 12:51:40;;;;;;;22.92;7.40;;;;;;;;;;6173096;23;20471;-45
2022/01/01 12:54:09;;;;;;;26.02;7.75;;;;;;;;;;6172621;23;20025;-46
2022/01/01 12:56:35;;;;;;;23.38;6.95;;;;;;;;;;6172307;23;20366;-44
2022/01/01 12:59:07;;;;;;;16.42;7.10;;;;;;;;;;6174126;23;20524;-46
2022/01/01 13:01:34;;;;;;;23.65;8.13;;;;;;;;;;6172366;23;20394;-45
2022/01/01 13:04:00;;;;;;;29.52;8.05;;;;;;;;;;6172927;23;20032;-47
2022/01/01 13:06:29;;;;;;;20.63;6.75;;;;;;;;;;6171402;23;20040;-46
2022/01/01 13:08:57;;;;;;;26.58;8.43;;;;;;;;;;6174810;23;20019;-46
2022/01/01 13:11:22;;;;;;;22.63;7.07;;;;;;;;;;6147923;23;20013;-45
2022/01/01 13:13:47;;;;;;;23.67;7.68;;;;;;;;;;6172458;23;20602;-47
2022/01/01 13:16:13;;;;;;;33.25;8.25;;;;;;;;;;6175567;23;20009;-45
2022/01/01 13:18:38;;;;;;;23.55;8.18;;;;;;;;;;6175388;23;20041;-45
2022/01/01 13:21:03;;;;;;;18.83;6.60;;;;;;;;;;6150077;23;20017;-46
2022/01/01 13:23:29;;;;;;;16.35;6.78;;;;;;;;;;6173414;23;20521;-47
2022/01/01 13:25:55;;;;;;;22.05;5.80;;;;;;;;;;6146749;23;20091;-45
2022/01/01 13:28:29;;;;;;;19.02;6.38;;;;;;;;;;6173574;23;20016;-45
2022/01/01 13:30:54;;;;;;;20.75;5.93;;;;;;;;;;6175040;23;20001;-49
2022/01/01 13:33:21;;;;;;;21.30;6.07;;;;;;;;;;6148610;23;20092;-46
2022/01/01 13:35:51;;;;;;;21.20;7.30;;;;;;;;;;6176343;23;20009;-45
2022/01/01 13:38:16;;;;;;;15.07;6.18;;;;;;;;;;6175077;23;20024;-46
2022/01/01 13:40:45;;;;;;;20.02;6.03;;;;;;;;;;6175199;23;20016;-46
2022/01/01 13:43:11;;;;;;;20.15;5.43;;;;;;;;;;6174664;23;20025;-46
2022/01/01 13:45:37;;;;;;;22.00;7.28;;;;;;;;;;6173350;23;20011;-47
2022/01/01 13:48:09;;;;;;;16.65;7.43;;;;;;;;;;6174620;23;20044;-45
2022/01/01 13:50:41;;;;;;;17.25;6.82;;;;;;;;;;6172901;23;20005;-48
2022/01/01 13:53:08;;;;;;;19.35;8.07;;;;;;;;;;6174984;23;20478;-46
2022/01/01 13:55:33;;;;;;;28.05;8.25;;;;;;;;;;6173674;23;20060;-48
2022/01/01 13:58:01;;;;;;;28.88;7.70;;;;;;;;;;6176839;23;20023;-45
2022/01/01 14:00:26;;;;;;;16.52;6.63;;;;;;;;;;6174703;23;20029;-46
2022/01/01 14:02:54;;;;;;;20.23;6.70;;;;;;;;;;6175969;23;20067;-45
2022/01/01 14:05:20;;;;;;;25.60;7.22;;;;;;;;;;6175861;23;20052;-47
2022/01/01 14:07:45;;;;;;;24.88;6.85;;;;;;;;;;6176651;23;20020;-44
2022/01/01 14:10:14;;;;;;;17.08;5.57;;;;;;;;;;6177541;23;20017;-47
2022/01/01 14:12:41;;;;;;;18.45;6.00;;;;;;;;;;6175000;23;20013;-46
2022/01/01 14:15:06;;;;;;;16.50;7.18;;;;;;;;;;6177213;23;20024;-49
2022/01/01 14:17:51;;;;;;;18.38;5.63;;;;;;;;;;6176751;23;20370;-49
2022/01/01 14:20:20;;;;;;;26.98;7.28;;;;;;;;;;6177138;23;20112;-49
2022/01/01 14:22:45;;;;;;;20.60;6.90;;;;;;;;;;6177229;23;20021;-46
2022/01/01 14:25:12;;;;;;;30.50;6.82;;;;;;;;;;6178091;23;20028;-49
2022/01/01 14:27:38;;;;;;;26.60;8.30;;;;;;;;;;6176153;23;20001;-49
2022/01/01 14:30:03;;;;;;;14.85;6.00;;;;;;;;;;6177817;23;20067;-50
2022/01/01 14:32:29;;;;;;;26.85;6.35;;;;;;;;;;6172232;23;20013;-46